sensor_id;sensor_type;location;lat;lon;timestamp;P1;durP1;ratioP1;P2;durP2;ratioP2
27566;SDS011;15006;48.584;9.186;2022-10-18T00:00:13;7.05;;;4.40;;
27566;SDS011;15006;48.584;9.186;2022-10-18T00:02:39;7.88;;;4.43;;
27566;SDS011;15006;48.584;9.186;2022-10-18T00:05:05;4.78;;;4.13;;
27566;SDS011;15006;48.584;9.186;2022-10-18T00:07:32;9.63;;;4.60;;
27566;SDS011;15006;48.584;9.186;2022-10-18T00:09:58;7.10;;;4.53;;
27566;SDS011;15006;48.584;9.186;2022-10-18T00:12:24;5.30;;;4.40;;
27566;SDS011;15006;48.584;9.186;2022-10-18T00:14:50;8.15;;;4.97;;
27566;SDS011;15006;48.584;9.186;2022-10-18T00:17:16;7.07;;;4.03;;
27566;SDS011;15006;48.584;9.186;2022-10-18T00:19:42;4.32;;;3.40;;
27566;SDS011;15006;48.584;9.186;2022-10-18T00:22:08;7.22;;;3.80;;
27566;SDS011;15006;48.584;9.186;2022-10-18T00:24:34;3.70;;;3.40;;
27566;SDS011;15006;48.584;9.186;2022-10-18T00:27:00;3.78;;;3.42;;
27566;SDS011;15006;48.584;9.186;2022-10-18T00:29:26;4.35;;;3.60;;
27566;SDS011;15006;48.584;9.186;2022-10-18T00:31:52;9.70;;;3.33;;
27566;SDS011;15006;48.584;9.186;2022-10-18T00:34:18;5.70;;;3.50;;
27566;SDS011;15006;48.584;9.186;2022-10-18T00:36:44;8.77;;;3.90;;
27566;SDS011;15006;48.584;9.186;2022-10-18T00:39:15;4.18;;;3.78;;
27566;SDS011;15006;48.584;9.186;2022-10-18T00:41:45;5.03;;;4.20;;
27566;SDS011;15006;48.584;9.186;2022-10-18T00:46:44;4.55;;;4.15;;
27566;SDS011;15006;48.584;9.186;2022-10-18T00:49:13;4.15;;;3.75;;
27566;SDS011;15006;48.584;9.186;2022-10-18T00:51:53;5.68;;;4.43;;
27566;SDS011;15006;48.584;9.186;2022-10-18T00:54:28;10.63;;;4.07;;
27566;SDS011;15006;48.584;9.186;2022-10-18T00:56:55;3.83;;;3.53;;
27566;SDS011;15006;48.584;9.186;2022-10-18T00:59:21;5.28;;;4.22;;
27566;SDS011;15006;48.584;9.186;2022-10-18T01:01:48;3.78;;;3.45;;
27566;SDS011;15006;48.584;9.186;2022-10-18T01:04:16;6.10;;;3.88;;
27566;SDS011;15006;48.584;9.186;2022-10-18T01:07:09;6.40;;;2.67;;
27566;SDS011;15006;48.584;9.186;2022-10-18T01:12:31;6.35;;;3.40;;
27566;SDS011;15006;48.584;9.186;2022-10-18T01:15:37;4.20;;;3.38;;
27566;SDS011;15006;48.584;9.186;2022-10-18T01:22:01;10.20;;;3.78;;
27566;SDS011;15006;48.584;9.186;2022-10-18T01:27:42;6.40;;;3.90;;
27566;SDS011;15006;48.584;9.186;2022-10-18T01:33:52;3.53;;;3.30;;
27566;SDS011;15006;48.584;9.186;2022-10-18T01:36:37;8.85;;;3.60;;
27566;SDS011;15006;48.584;9.186;2022-10-18T01:39:19;8.98;;;4.18;;
27566;SDS011;15006;48.584;9.186;2022-10-18T01:41:55;4.72;;;4.25;;
27566;SDS011;15006;48.584;9.186;2022-10-18T01:44:28;5.25;;;4.40;;
27566;SDS011;15006;48.584;9.186;2022-10-18T01:46:59;8.85;;;4.30;;
27566;SDS011;15006;48.584;9.186;2022-10-18T01:49:29;7.30;;;4.15;;
27566;SDS011;15006;48.584;9.186;2022-10-18T01:51:58;6.10;;;3.83;;
27566;SDS011;15006;48.584;9.186;2022-10-18T01:54:29;9.98;;;4.45;;
27566;SDS011;15006;48.584;9.186;2022-10-18T02:00:15;4.13;;;3.70;;
27566;SDS011;15006;48.584;9.186;2022-10-18T02:02:56;4.05;;;3.75;;
27566;SDS011;15006;48.584;9.186;2022-10-18T02:08:22;6.93;;;3.77;;
27566;SDS011;15006;48.584;9.186;2022-10-18T02:11:01;4.38;;;3.78;;
27566;SDS011;15006;48.584;9.186;2022-10-18T02:13:52;7.05;;;3.35;;
27566;SDS011;15006;48.584;9.186;2022-10-18T02:16:30;3.80;;;3.45;;
27566;SDS011;15006;48.584;9.186;2022-10-18T02:19:08;4.50;;;3.40;;
27566;SDS011;15006;48.584;9.186;2022-10-18T02:21:44;6.82;;;3.40;;
27566;SDS011;15006;48.584;9.186;2022-10-18T02:24:13;4.68;;;3.03;;
27566;SDS011;15006;48.584;9.186;2022-10-18T02:26:39;6.80;;;3.30;;
27566;SDS011;15006;48.584;9.186;2022-10-18T02:29:06;6.22;;;3.80;;
27566;SDS011;15006;48.584;9.186;2022-10-18T02:31:35;5.97;;;4.05;;
27566;SDS011;15006;48.584;9.186;2022-10-18T02:36:50;8.32;;;3.75;;
27566;SDS011;15006;48.584;9.186;2022-10-18T02:39:39;10.18;;;3.70;;
27566;SDS011;15006;48.584;9.186;2022-10-18T02:42:11;4.15;;;3.70;;
27566;SDS011;15006;48.584;9.186;2022-10-18T02:44:38;4.47;;;3.60;;
27566;SDS011;15006;48.584;9.186;2022-10-18T02:47:05;8.70;;;3.75;;
27566;SDS011;15006;48.584;9.186;2022-10-18T02:49:33;5.10;;;3.50;;
27566;SDS011;15006;48.584;9.186;2022-10-18T02:51:59;4.13;;;3.67;;
27566;SDS011;15006;48.584;9.186;2022-10-18T02:54:25;3.92;;;3.42;;
27566;SDS011;15006;48.584;9.186;2022-10-18T02:56:51;3.80;;;3.50;;
27566;SDS011;15006;48.584;9.186;2022-10-18T02:59:17;7.57;;;3.60;;
27566;SDS011;15006;48.584;9.186;2022-10-18T03:01:43;3.50;;;3.17;;
27566;SDS011;15006;48.584;9.186;2022-10-18T03:04:09;6.15;;;3.40;;
27566;SDS011;15006;48.584;9.186;2022-10-18T03:06:35;7.93;;;3.60;;
27566;SDS011;15006;48.584;9.186;2022-10-18T03:09:02;8.30;;;3.47;;
27566;SDS011;15006;48.584;9.186;2022-10-18T03:11:29;4.00;;;3.70;;
27566;SDS011;15006;48.584;9.186;2022-10-18T03:13:56;5.45;;;3.70;;
27566;SDS011;15006;48.584;9.186;2022-10-18T03:16:22;10.25;;;3.50;;
27566;SDS011;15006;48.584;9.186;2022-10-18T03:18:48;5.70;;;3.53;;
27566;SDS011;15006;48.584;9.186;2022-10-18T03:21:14;11.13;;;3.85;;
27566;SDS011;15006;48.584;9.186;2022-10-18T03:23:40;4.80;;;3.30;;
27566;SDS011;15006;48.584;9.186;2022-10-18T03:26:07;12.27;;;4.75;;
27566;SDS011;15006;48.584;9.186;2022-10-18T03:28:33;5.72;;;3.58;;
27566;SDS011;15006;48.584;9.186;2022-10-18T03:31:00;5.45;;;3.20;;
27566;SDS011;15006;48.584;9.186;2022-10-18T03:33:27;3.72;;;3.53;;
27566;SDS011;15006;48.584;9.186;2022-10-18T03:35:54;9.00;;;3.95;;
27566;SDS011;15006;48.584;9.186;2022-10-18T03:38:20;7.05;;;5.28;;
27566;SDS011;15006;48.584;9.186;2022-10-18T03:40:46;7.25;;;5.25;;
27566;SDS011;15006;48.584;9.186;2022-10-18T03:43:12;6.95;;;4.80;;
27566;SDS011;15006;48.584;9.186;2022-10-18T03:45:38;7.47;;;4.80;;
27566;SDS011;15006;48.584;9.186;2022-10-18T03:48:05;7.45;;;4.18;;
27566;SDS011;15006;48.584;9.186;2022-10-18T03:50:31;5.18;;;4.22;;
27566;SDS011;15006;48.584;9.186;2022-10-18T03:52:57;5.95;;;3.75;;
27566;SDS011;15006;48.584;9.186;2022-10-18T03:55:23;11.93;;;4.30;;
27566;SDS011;15006;48.584;9.186;2022-10-18T03:57:49;5.32;;;3.75;;
27566;SDS011;15006;48.584;9.186;2022-10-18T04:00:15;11.02;;;4.60;;
27566;SDS011;15006;48.584;9.186;2022-10-18T04:02:41;6.25;;;4.03;;
27566;SDS011;15006;48.584;9.186;2022-10-18T04:05:08;6.18;;;3.45;;
27566;SDS011;15006;48.584;9.186;2022-10-18T04:07:34;4.47;;;3.20;;
27566;SDS011;15006;48.584;9.186;2022-10-18T04:10:00;6.38;;;3.40;;
27566;SDS011;15006;48.584;9.186;2022-10-18T04:12:27;5.45;;;3.33;;
27566;SDS011;15006;48.584;9.186;2022-10-18T04:14:52;4.15;;;3.70;;
27566;SDS011;15006;48.584;9.186;2022-10-18T04:17:18;5.60;;;3.58;;
27566;SDS011;15006;48.584;9.186;2022-10-18T04:19:45;6.75;;;3.53;;
27566;SDS011;15006;48.584;9.186;2022-10-18T04:22:11;8.27;;;3.78;;
27566;SDS011;15006;48.584;9.186;2022-10-18T04:24:37;4.88;;;4.07;;
27566;SDS011;15006;48.584;9.186;2022-10-18T04:27:04;5.25;;;4.13;;
27566;SDS011;15006;48.584;9.186;2022-10-18T04:29:30;7.93;;;4.07;;
27566;SDS011;15006;48.584;9.186;2022-10-18T04:31:56;7.43;;;3.95;;
27566;SDS011;15006;48.584;9.186;2022-10-18T04:34:22;4.38;;;3.45;;
27566;SDS011;15006;48.584;9.186;2022-10-18T04:36:48;5.10;;;3.80;;
27566;SDS011;15006;48.584;9.186;2022-10-18T04:39:15;4.57;;;3.88;;
27566;SDS011;15006;48.584;9.186;2022-10-18T04:41:41;5.20;;;3.72;;
27566;SDS011;15006;48.584;9.186;2022-10-18T04:44:07;4.05;;;3.75;;
27566;SDS011;15006;48.584;9.186;2022-10-18T04:46:33;5.40;;;3.22;;
27566;SDS011;15006;48.584;9.186;2022-10-18T04:48:59;4.35;;;3.50;;
27566;SDS011;15006;48.584;9.186;2022-10-18T04:51:26;4.13;;;3.55;;
27566;SDS011;15006;48.584;9.186;2022-10-18T04:53:53;4.25;;;3.90;;
27566;SDS011;15006;48.584;9.186;2022-10-18T04:56:19;7.05;;;4.18;;
27566;SDS011;15006;48.584;9.186;2022-10-18T04:58:45;9.57;;;4.45;;
27566;SDS011;15006;48.584;9.186;2022-10-18T05:01:11;4.47;;;3.25;;
27566;SDS011;15006;48.584;9.186;2022-10-18T05:03:37;4.22;;;3.90;;
27566;SDS011;15006;48.584;9.186;2022-10-18T05:06:03;8.40;;;4.53;;
27566;SDS011;15006;48.584;9.186;2022-10-18T05:08:31;4.60;;;4.13;;
27566;SDS011;15006;48.584;9.186;2022-10-18T05:10:59;4.10;;;3.70;;
27566;SDS011;15006;48.584;9.186;2022-10-18T05:13:25;6.15;;;3.80;;
27566;SDS011;15006;48.584;9.186;2022-10-18T05:15:52;4.45;;;4.05;;
27566;SDS011;15006;48.584;9.186;2022-10-18T05:18:18;3.78;;;3.50;;
27566;SDS011;15006;48.584;9.186;2022-10-18T05:20:44;4.28;;;3.97;;
27566;SDS011;15006;48.584;9.186;2022-10-18T05:23:11;9.63;;;4.10;;
27566;SDS011;15006;48.584;9.186;2022-10-18T05:25:37;8.48;;;3.90;;
27566;SDS011;15006;48.584;9.186;2022-10-18T05:28:04;4.20;;;3.85;;
27566;SDS011;15006;48.584;9.186;2022-10-18T05:30:31;8.93;;;4.07;;
27566;SDS011;15006;48.584;9.186;2022-10-18T05:32:57;5.55;;;4.03;;
27566;SDS011;15006;48.584;9.186;2022-10-18T05:35:23;5.53;;;4.32;;
27566;SDS011;15006;48.584;9.186;2022-10-18T05:37:49;4.85;;;4.30;;
27566;SDS011;15006;48.584;9.186;2022-10-18T05:40:15;6.18;;;4.85;;
27566;SDS011;15006;48.584;9.186;2022-10-18T05:42:41;6.85;;;5.63;;
27566;SDS011;15006;48.584;9.186;2022-10-18T05:45:07;5.60;;;4.80;;
27566;SDS011;15006;48.584;9.186;2022-10-18T05:47:33;5.13;;;4.50;;
27566;SDS011;15006;48.584;9.186;2022-10-18T05:49:59;5.15;;;4.25;;
27566;SDS011;15006;48.584;9.186;2022-10-18T05:52:25;5.05;;;4.63;;
27566;SDS011;15006;48.584;9.186;2022-10-18T05:54:51;6.20;;;4.88;;
27566;SDS011;15006;48.584;9.186;2022-10-18T05:57:17;12.00;;;5.13;;
27566;SDS011;15006;48.584;9.186;2022-10-18T05:59:44;5.13;;;4.78;;
27566;SDS011;15006;48.584;9.186;2022-10-18T06:02:10;6.82;;;4.65;;
27566;SDS011;15006;48.584;9.186;2022-10-18T06:04:37;10.48;;;4.30;;
27566;SDS011;15006;48.584;9.186;2022-10-18T06:07:07;11.52;;;4.35;;
27566;SDS011;15006;48.584;9.186;2022-10-18T06:09:36;5.72;;;4.15;;
27566;SDS011;15006;48.584;9.186;2022-10-18T06:12:03;8.25;;;4.03;;
27566;SDS011;15006;48.584;9.186;2022-10-18T06:14:29;11.27;;;4.07;;
27566;SDS011;15006;48.584;9.186;2022-10-18T06:16:55;4.80;;;4.50;;
27566;SDS011;15006;48.584;9.186;2022-10-18T06:19:22;10.07;;;3.97;;
27566;SDS011;15006;48.584;9.186;2022-10-18T06:21:48;6.43;;;5.07;;
27566;SDS011;15006;48.584;9.186;2022-10-18T06:24:14;6.93;;;3.97;;
27566;SDS011;15006;48.584;9.186;2022-10-18T06:26:40;6.35;;;4.25;;
27566;SDS011;15006;48.584;9.186;2022-10-18T06:29:06;5.07;;;4.40;;
27566;SDS011;15006;48.584;9.186;2022-10-18T06:31:32;10.65;;;6.95;;
27566;SDS011;15006;48.584;9.186;2022-10-18T06:33:58;5.47;;;5.07;;
27566;SDS011;15006;48.584;9.186;2022-10-18T06:36:26;8.88;;;5.30;;
27566;SDS011;15006;48.584;9.186;2022-10-18T06:38:54;13.10;;;4.97;;
27566;SDS011;15006;48.584;9.186;2022-10-18T06:41:21;6.85;;;4.57;;
27566;SDS011;15006;48.584;9.186;2022-10-18T06:43:51;7.65;;;4.40;;
27566;SDS011;15006;48.584;9.186;2022-10-18T06:46:21;4.60;;;4.25;;
27566;SDS011;15006;48.584;9.186;2022-10-18T06:48:47;5.18;;;3.92;;
27566;SDS011;15006;48.584;9.186;2022-10-18T06:51:13;5.63;;;4.18;;
27566;SDS011;15006;48.584;9.186;2022-10-18T06:53:39;4.38;;;3.90;;
27566;SDS011;15006;48.584;9.186;2022-10-18T06:56:10;7.10;;;4.00;;
27566;SDS011;15006;48.584;9.186;2022-10-18T06:58:37;4.35;;;3.95;;
27566;SDS011;15006;48.584;9.186;2022-10-18T07:01:11;5.78;;;4.05;;
27566;SDS011;15006;48.584;9.186;2022-10-18T07:03:42;4.20;;;3.90;;
27566;SDS011;15006;48.584;9.186;2022-10-18T07:06:11;4.72;;;4.20;;
27566;SDS011;15006;48.584;9.186;2022-10-18T07:08:38;8.98;;;4.03;;
27566;SDS011;15006;48.584;9.186;2022-10-18T07:11:06;7.05;;;4.10;;
27566;SDS011;15006;48.584;9.186;2022-10-18T07:13:33;4.45;;;3.92;;
27566;SDS011;15006;48.584;9.186;2022-10-18T07:16:00;6.93;;;4.15;;
27566;SDS011;15006;48.584;9.186;2022-10-18T07:18:34;3.90;;;3.70;;
27566;SDS011;15006;48.584;9.186;2022-10-18T07:21:03;8.43;;;3.95;;
27566;SDS011;15006;48.584;9.186;2022-10-18T07:23:33;4.70;;;4.30;;
27566;SDS011;15006;48.584;9.186;2022-10-18T07:26:02;4.38;;;3.95;;
27566;SDS011;15006;48.584;9.186;2022-10-18T07:31:09;4.63;;;3.65;;
27566;SDS011;15006;48.584;9.186;2022-10-18T07:33:36;3.70;;;3.40;;
27566;SDS011;15006;48.584;9.186;2022-10-18T07:36:03;5.70;;;4.10;;
27566;SDS011;15006;48.584;9.186;2022-10-18T07:38:31;4.28;;;3.97;;
27566;SDS011;15006;48.584;9.186;2022-10-18T07:40:58;5.18;;;4.07;;
27566;SDS011;15006;48.584;9.186;2022-10-18T07:43:26;3.90;;;3.60;;
27566;SDS011;15006;48.584;9.186;2022-10-18T07:45:53;6.18;;;3.65;;
27566;SDS011;15006;48.584;9.186;2022-10-18T07:48:23;4.43;;;3.33;;
27566;SDS011;15006;48.584;9.186;2022-10-18T07:50:50;3.92;;;3.70;;
27566;SDS011;15006;48.584;9.186;2022-10-18T07:53:16;4.70;;;3.38;;
27566;SDS011;15006;48.584;9.186;2022-10-18T07:55:42;4.70;;;3.75;;
27566;SDS011;15006;48.584;9.186;2022-10-18T07:58:09;4.25;;;3.95;;
27566;SDS011;15006;48.584;9.186;2022-10-18T08:00:36;3.67;;;3.47;;
27566;SDS011;15006;48.584;9.186;2022-10-18T08:03:03;4.80;;;4.35;;
27566;SDS011;15006;48.584;9.186;2022-10-18T08:05:29;5.00;;;4.20;;
27566;SDS011;15006;48.584;9.186;2022-10-18T08:07:55;6.43;;;5.45;;
27566;SDS011;15006;48.584;9.186;2022-10-18T08:10:22;11.75;;;6.45;;
27566;SDS011;15006;48.584;9.186;2022-10-18T08:12:51;9.32;;;6.10;;
27566;SDS011;15006;48.584;9.186;2022-10-18T08:15:18;4.50;;;4.20;;
27566;SDS011;15006;48.584;9.186;2022-10-18T08:17:45;4.32;;;3.42;;
27566;SDS011;15006;48.584;9.186;2022-10-18T08:20:11;4.57;;;3.90;;
27566;SDS011;15006;48.584;9.186;2022-10-18T08:22:41;4.90;;;3.85;;
27566;SDS011;15006;48.584;9.186;2022-10-18T08:25:07;4.07;;;3.40;;
27566;SDS011;15006;48.584;9.186;2022-10-18T08:27:33;4.53;;;4.20;;
27566;SDS011;15006;48.584;9.186;2022-10-18T08:29:59;5.78;;;3.28;;
27566;SDS011;15006;48.584;9.186;2022-10-18T08:32:27;3.90;;;3.40;;
27566;SDS011;15006;48.584;9.186;2022-10-18T08:34:53;3.80;;;3.05;;
27566;SDS011;15006;48.584;9.186;2022-10-18T08:37:19;4.95;;;3.55;;
27566;SDS011;15006;48.584;9.186;2022-10-18T08:39:45;6.75;;;3.90;;
27566;SDS011;15006;48.584;9.186;2022-10-18T08:45:02;4.78;;;3.50;;
27566;SDS011;15006;48.584;9.186;2022-10-18T08:47:32;6.77;;;3.37;;
27566;SDS011;15006;48.584;9.186;2022-10-18T08:50:05;3.55;;;3.00;;
27566;SDS011;15006;48.584;9.186;2022-10-18T08:55:35;3.50;;;3.08;;
27566;SDS011;15006;48.584;9.186;2022-10-18T09:00:49;3.90;;;3.05;;
27566;SDS011;15006;48.584;9.186;2022-10-18T09:06:39;4.28;;;3.70;;
27566;SDS011;15006;48.584;9.186;2022-10-18T09:09:41;3.20;;;2.85;;
27566;SDS011;15006;48.584;9.186;2022-10-18T09:24:11;11.98;;;2.75;;
27566;SDS011;15006;48.584;9.186;2022-10-18T09:26:48;2.53;;;2.33;;
27566;SDS011;15006;48.584;9.186;2022-10-18T09:34:55;3.20;;;2.50;;
27566;SDS011;15006;48.584;9.186;2022-10-18T09:37:35;6.68;;;2.70;;
27566;SDS011;15006;48.584;9.186;2022-10-18T09:40:11;2.95;;;2.28;;
27566;SDS011;15006;48.584;9.186;2022-10-18T09:42:54;3.35;;;2.50;;
27566;SDS011;15006;48.584;9.186;2022-10-18T09:45:36;2.40;;;2.17;;
27566;SDS011;15006;48.584;9.186;2022-10-18T09:48:11;2.75;;;2.55;;
27566;SDS011;15006;48.584;9.186;2022-10-18T09:53:31;2.45;;;2.25;;
27566;SDS011;15006;48.584;9.186;2022-10-18T09:56:29;3.13;;;2.50;;
27566;SDS011;15006;48.584;9.186;2022-10-18T09:59:01;13.77;;;3.10;;
27566;SDS011;15006;48.584;9.186;2022-10-18T10:01:30;4.93;;;2.08;;
27566;SDS011;15006;48.584;9.186;2022-10-18T10:03:57;6.30;;;2.70;;
27566;SDS011;15006;48.584;9.186;2022-10-18T10:09:15;2.63;;;2.20;;
27566;SDS011;15006;48.584;9.186;2022-10-18T10:11:46;3.08;;;2.35;;
27566;SDS011;15006;48.584;9.186;2022-10-18T10:14:19;2.42;;;2.22;;
27566;SDS011;15006;48.584;9.186;2022-10-18T10:19:30;4.38;;;2.50;;
27566;SDS011;15006;48.584;9.186;2022-10-18T10:22:02;3.05;;;2.22;;
27566;SDS011;15006;48.584;9.186;2022-10-18T10:24:50;6.03;;;2.42;;
27566;SDS011;15006;48.584;9.186;2022-10-18T10:27:20;2.90;;;2.10;;
27566;SDS011;15006;48.584;9.186;2022-10-18T10:29:57;2.35;;;2.15;;
27566;SDS011;15006;48.584;9.186;2022-10-18T10:32:27;5.57;;;2.20;;
27566;SDS011;15006;48.584;9.186;2022-10-18T10:34:56;7.10;;;2.25;;
27566;SDS011;15006;48.584;9.186;2022-10-18T10:37:28;2.60;;;2.05;;
27566;SDS011;15006;48.584;9.186;2022-10-18T10:45:22;3.47;;;2.00;;
27566;SDS011;15006;48.584;9.186;2022-10-18T10:47:51;3.78;;;1.92;;
27566;SDS011;15006;48.584;9.186;2022-10-18T10:50:22;3.47;;;2.00;;
27566;SDS011;15006;48.584;9.186;2022-10-18T10:52:51;3.67;;;1.80;;
27566;SDS011;15006;48.584;9.186;2022-10-18T10:55:19;2.97;;;1.85;;
27566;SDS011;15006;48.584;9.186;2022-10-18T10:57:52;3.22;;;1.50;;
27566;SDS011;15006;48.584;9.186;2022-10-18T11:03:17;1.83;;;1.73;;
27566;SDS011;15006;48.584;9.186;2022-10-18T11:05:51;5.32;;;1.77;;
27566;SDS011;15006;48.584;9.186;2022-10-18T11:08:27;2.13;;;1.80;;
27566;SDS011;15006;48.584;9.186;2022-10-18T11:11:20;2.97;;;1.45;;
27566;SDS011;15006;48.584;9.186;2022-10-18T11:19:54;1.60;;;1.50;;
27566;SDS011;15006;48.584;9.186;2022-10-18T11:22:28;1.92;;;1.65;;
27566;SDS011;15006;48.584;9.186;2022-10-18T11:25:00;2.47;;;1.63;;
27566;SDS011;15006;48.584;9.186;2022-10-18T11:27:36;3.35;;;1.65;;
27566;SDS011;15006;48.584;9.186;2022-10-18T11:36:06;3.30;;;1.65;;
27566;SDS011;15006;48.584;9.186;2022-10-18T11:38:43;1.92;;;1.25;;
27566;SDS011;15006;48.584;9.186;2022-10-18T11:44:12;1.38;;;1.20;;
27566;SDS011;15006;48.584;9.186;2022-10-18T12:01:19;4.65;;;1.40;;
27566;SDS011;15006;48.584;9.186;2022-10-18T12:06:22;1.60;;;1.40;;
27566;SDS011;15006;48.584;9.186;2022-10-18T12:08:56;2.65;;;1.80;;
27566;SDS011;15006;48.584;9.186;2022-10-18T12:11:29;3.50;;;1.45;;
27566;SDS011;15006;48.584;9.186;2022-10-18T12:14:02;3.80;;;1.75;;
27566;SDS011;15006;48.584;9.186;2022-10-18T12:16:38;3.03;;;1.58;;
27566;SDS011;15006;48.584;9.186;2022-10-18T12:19:10;1.70;;;1.60;;
27566;SDS011;15006;48.584;9.186;2022-10-18T12:21:43;2.13;;;1.60;;
27566;SDS011;15006;48.584;9.186;2022-10-18T12:24:10;3.55;;;1.38;;
27566;SDS011;15006;48.584;9.186;2022-10-18T12:26:46;4.88;;;1.45;;
27566;SDS011;15006;48.584;9.186;2022-10-18T12:32:06;1.75;;;1.10;;
27566;SDS011;15006;48.584;9.186;2022-10-18T12:34:40;1.52;;;1.05;;
27566;SDS011;15006;48.584;9.186;2022-10-18T12:40:16;1.33;;;1.20;;
27566;SDS011;15006;48.584;9.186;2022-10-18T12:42:48;2.78;;;1.00;;
27566;SDS011;15006;48.584;9.186;2022-10-18T12:45:30;3.33;;;0.90;;
27566;SDS011;15006;48.584;9.186;2022-10-18T12:47:59;0.95;;;0.55;;
27566;SDS011;15006;48.584;9.186;2022-10-18T12:50:34;1.63;;;0.70;;
27566;SDS011;15006;48.584;9.186;2022-10-18T12:53:22;2.03;;;0.80;;
27566;SDS011;15006;48.584;9.186;2022-10-18T12:55:51;4.82;;;0.80;;
27566;SDS011;15006;48.584;9.186;2022-10-18T12:58:29;6.28;;;0.90;;
27566;SDS011;15006;48.584;9.186;2022-10-18T13:00:57;1.90;;;1.80;;
27566;SDS011;15006;48.584;9.186;2022-10-18T13:03:36;6.57;;;2.65;;
27566;SDS011;15006;48.584;9.186;2022-10-18T13:06:17;4.90;;;2.30;;
27566;SDS011;15006;48.584;9.186;2022-10-18T13:08:43;3.20;;;2.30;;
27566;SDS011;15006;48.584;9.186;2022-10-18T13:25:39;2.60;;;1.50;;
27566;SDS011;15006;48.584;9.186;2022-10-18T13:28:35;7.38;;;2.30;;
27566;SDS011;15006;48.584;9.186;2022-10-18T13:31:24;3.17;;;2.25;;
27566;SDS011;15006;48.584;9.186;2022-10-18T13:34:33;5.22;;;1.75;;
27566;SDS011;15006;48.584;9.186;2022-10-18T13:37:01;9.07;;;2.00;;
27566;SDS011;15006;48.584;9.186;2022-10-18T13:39:45;1.80;;;1.63;;
27566;SDS011;15006;48.584;9.186;2022-10-18T13:44:53;1.55;;;1.45;;
27566;SDS011;15006;48.584;9.186;2022-10-18T13:47:37;1.60;;;1.50;;
27566;SDS011;15006;48.584;9.186;2022-10-18T13:50:06;2.63;;;1.35;;
27566;SDS011;15006;48.584;9.186;2022-10-18T13:52:48;4.47;;;1.20;;
27566;SDS011;15006;48.584;9.186;2022-10-18T13:58:47;1.25;;;0.88;;
27566;SDS011;15006;48.584;9.186;2022-10-18T14:01:33;0.95;;;0.70;;
27566;SDS011;15006;48.584;9.186;2022-10-18T14:04:41;1.30;;;0.75;;
27566;SDS011;15006;48.584;9.186;2022-10-18T14:07:33;1.40;;;0.88;;
27566;SDS011;15006;48.584;9.186;2022-10-18T14:10:00;2.50;;;1.25;;
27566;SDS011;15006;48.584;9.186;2022-10-18T14:12:37;9.05;;;2.13;;
27566;SDS011;15006;48.584;9.186;2022-10-18T14:17:50;5.18;;;1.92;;
27566;SDS011;15006;48.584;9.186;2022-10-18T14:20:37;9.68;;;3.15;;
27566;SDS011;15006;48.584;9.186;2022-10-18T14:23:10;3.38;;;1.42;;
27566;SDS011;15006;48.584;9.186;2022-10-18T14:25:43;1.70;;;1.35;;
27566;SDS011;15006;48.584;9.186;2022-10-18T14:30:57;3.80;;;1.02;;
27566;SDS011;15006;48.584;9.186;2022-10-18T14:43:52;2.17;;;0.80;;
27566;SDS011;15006;48.584;9.186;2022-10-18T14:47:12;1.10;;;1.00;;
27566;SDS011;15006;48.584;9.186;2022-10-18T14:49:45;2.08;;;0.70;;
27566;SDS011;15006;48.584;9.186;2022-10-18T14:52:13;2.08;;;0.90;;
27566;SDS011;15006;48.584;9.186;2022-10-18T14:57:14;0.90;;;0.90;;
27566;SDS011;15006;48.584;9.186;2022-10-18T14:59:50;3.25;;;1.45;;
27566;SDS011;15006;48.584;9.186;2022-10-18T15:02:26;0.80;;;0.80;;
27566;SDS011;15006;48.584;9.186;2022-10-18T15:04:57;3.08;;;0.90;;
27566;SDS011;15006;48.584;9.186;2022-10-18T15:07:34;1.05;;;0.80;;
27566;SDS011;15006;48.584;9.186;2022-10-18T15:10:02;0.88;;;0.88;;
27566;SDS011;15006;48.584;9.186;2022-10-18T15:12:30;4.10;;;0.80;;
27566;SDS011;15006;48.584;9.186;2022-10-18T15:14:58;1.10;;;1.00;;
27566;SDS011;15006;48.584;9.186;2022-10-18T15:17:29;4.43;;;1.88;;
27566;SDS011;15006;48.584;9.186;2022-10-18T15:22:39;5.63;;;5.20;;
27566;SDS011;15006;48.584;9.186;2022-10-18T15:25:24;3.53;;;3.22;;
27566;SDS011;15006;48.584;9.186;2022-10-18T15:27:55;2.13;;;2.03;;
27566;SDS011;15006;48.584;9.186;2022-10-18T15:30:36;5.32;;;1.95;;
27566;SDS011;15006;48.584;9.186;2022-10-18T15:33:06;4.85;;;1.80;;
27566;SDS011;15006;48.584;9.186;2022-10-18T15:35:41;1.95;;;1.20;;
27566;SDS011;15006;48.584;9.186;2022-10-18T15:40:45;0.80;;;0.80;;
27566;SDS011;15006;48.584;9.186;2022-10-18T15:45:56;5.57;;;1.70;;
27566;SDS011;15006;48.584;9.186;2022-10-18T15:48:38;4.03;;;1.60;;
27566;SDS011;15006;48.584;9.186;2022-10-18T15:51:06;4.35;;;1.40;;
27566;SDS011;15006;48.584;9.186;2022-10-18T15:53:49;2.53;;;1.77;;
27566;SDS011;15006;48.584;9.186;2022-10-18T15:56:31;2.88;;;1.60;;
27566;SDS011;15006;48.584;9.186;2022-10-18T15:59:11;2.95;;;1.55;;
27566;SDS011;15006;48.584;9.186;2022-10-18T16:01:53;2.05;;;1.95;;
27566;SDS011;15006;48.584;9.186;2022-10-18T16:04:24;2.42;;;1.40;;
27566;SDS011;15006;48.584;9.186;2022-10-18T16:06:57;2.70;;;1.55;;
27566;SDS011;15006;48.584;9.186;2022-10-18T16:09:24;9.90;;;2.10;;
27566;SDS011;15006;48.584;9.186;2022-10-18T16:11:52;3.60;;;2.05;;
27566;SDS011;15006;48.584;9.186;2022-10-18T16:14:19;2.45;;;1.67;;
27566;SDS011;15006;48.584;9.186;2022-10-18T16:16:47;3.45;;;1.50;;
27566;SDS011;15006;48.584;9.186;2022-10-18T16:19:18;2.42;;;1.60;;
27566;SDS011;15006;48.584;9.186;2022-10-18T16:21:46;3.35;;;2.20;;
27566;SDS011;15006;48.584;9.186;2022-10-18T16:24:14;2.65;;;1.80;;
27566;SDS011;15006;48.584;9.186;2022-10-18T16:26:40;2.47;;;1.55;;
27566;SDS011;15006;48.584;9.186;2022-10-18T16:29:06;2.80;;;1.73;;
27566;SDS011;15006;48.584;9.186;2022-10-18T16:31:49;2.45;;;1.33;;
27566;SDS011;15006;48.584;9.186;2022-10-18T16:34:18;2.00;;;1.67;;
27566;SDS011;15006;48.584;9.186;2022-10-18T16:36:44;6.32;;;2.30;;
27566;SDS011;15006;48.584;9.186;2022-10-18T16:39:14;8.27;;;2.30;;
27566;SDS011;15006;48.584;9.186;2022-10-18T16:41:42;2.40;;;2.20;;
27566;SDS011;15006;48.584;9.186;2022-10-18T16:44:09;8.45;;;2.22;;
27566;SDS011;15006;48.584;9.186;2022-10-18T16:46:35;8.30;;;2.15;;
27566;SDS011;15006;48.584;9.186;2022-10-18T16:49:01;2.30;;;2.13;;
27566;SDS011;15006;48.584;9.186;2022-10-18T16:51:28;3.63;;;2.00;;
27566;SDS011;15006;48.584;9.186;2022-10-18T16:53:54;2.40;;;2.17;;
27566;SDS011;15006;48.584;9.186;2022-10-18T16:56:21;2.63;;;2.42;;
27566;SDS011;15006;48.584;9.186;2022-10-18T16:58:55;3.25;;;2.58;;
27566;SDS011;15006;48.584;9.186;2022-10-18T17:01:22;5.38;;;2.58;;
27566;SDS011;15006;48.584;9.186;2022-10-18T17:03:49;2.65;;;2.25;;
27566;SDS011;15006;48.584;9.186;2022-10-18T17:06:20;2.20;;;2.00;;
27566;SDS011;15006;48.584;9.186;2022-10-18T17:08:52;3.05;;;2.10;;
27566;SDS011;15006;48.584;9.186;2022-10-18T17:11:20;4.75;;;2.47;;
27566;SDS011;15006;48.584;9.186;2022-10-18T17:13:50;2.13;;;1.92;;
27566;SDS011;15006;48.584;9.186;2022-10-18T17:18:49;2.60;;;2.40;;
27566;SDS011;15006;48.584;9.186;2022-10-18T17:21:15;4.97;;;2.40;;
27566;SDS011;15006;48.584;9.186;2022-10-18T17:23:41;2.50;;;2.30;;
27566;SDS011;15006;48.584;9.186;2022-10-18T17:26:15;2.40;;;2.25;;
27566;SDS011;15006;48.584;9.186;2022-10-18T17:28:44;4.45;;;2.40;;
27566;SDS011;15006;48.584;9.186;2022-10-18T17:31:10;2.95;;;2.60;;
27566;SDS011;15006;48.584;9.186;2022-10-18T17:33:39;3.35;;;3.05;;
27566;SDS011;15006;48.584;9.186;2022-10-18T17:36:05;2.50;;;2.40;;
27566;SDS011;15006;48.584;9.186;2022-10-18T17:38:31;2.80;;;2.67;;
27566;SDS011;15006;48.584;9.186;2022-10-18T17:40:57;3.35;;;2.90;;
27566;SDS011;15006;48.584;9.186;2022-10-18T17:43:23;3.58;;;2.60;;
27566;SDS011;15006;48.584;9.186;2022-10-18T17:45:52;4.07;;;2.85;;
27566;SDS011;15006;48.584;9.186;2022-10-18T17:50:47;2.75;;;2.53;;